sensor_id;sensor_type;location;lat;lon;timestamp;temperature;humidity
40600;DHT22;26309;50.924;4.754;2023-08-21T00:00:31;20.40;99.90
40600;DHT22;26309;50.924;4.754;2023-08-21T00:02:57;20.40;99.90
40600;DHT22;26309;50.924;4.754;2023-08-21T00:05:23;20.40;99.90
40600;DHT22;26309;50.924;4.754;2023-08-21T00:07:49;20.30;99.90
40600;DHT22;26309;50.924;4.754;2023-08-21T00:10:18;20.20;99.90
40600;DHT22;26309;50.924;4.754;2023-08-21T00:12:44;20.20;99.90
40600;DHT22;26309;50.924;4.754;2023-08-21T00:15:10;20.10;99.90
40600;DHT22;26309;50.924;4.754;2023-08-21T00:17:35;20.00;99.90
40600;DHT22;26309;50.924;4.754;2023-08-21T00:20:01;20.00;99.90
40600;DHT22;26309;50.924;4.754;2023-08-21T00:22:28;20.00;99.90
40600;DHT22;26309;50.924;4.754;2023-08-21T00:24:54;20.00;99.90
40600;DHT22;26309;50.924;4.754;2023-08-21T00:27:20;20.00;99.90
40600;DHT22;26309;50.924;4.754;2023-08-21T00:29:46;20.00;99.90
40600;DHT22;26309;50.924;4.754;2023-08-21T00:32:14;20.00;99.90
40600;DHT22;26309;50.924;4.754;2023-08-21T00:34:41;20.00;99.90
40600;DHT22;26309;50.924;4.754;2023-08-21T00:37:09;20.00;99.90
40600;DHT22;26309;50.924;4.754;2023-08-21T00:39:35;20.00;99.90
40600;DHT22;26309;50.924;4.754;2023-08-21T00:42:01;20.10;99.90
40600;DHT22;26309;50.924;4.754;2023-08-21T00:44:28;20.20;99.90
40600;DHT22;26309;50.924;4.754;2023-08-21T00:46:54;20.20;99.90
40600;DHT22;26309;50.924;4.754;2023-08-21T00:49:20;20.40;99.90
40600;DHT22;26309;50.924;4.754;2023-08-21T00:51:48;20.30;99.90
40600;DHT22;26309;50.924;4.754;2023-08-21T00:54:15;20.00;99.90
40600;DHT22;26309;50.924;4.754;2023-08-21T00:56:41;20.00;99.90
40600;DHT22;26309;50.924;4.754;2023-08-21T00:59:08;19.90;99.90
40600;DHT22;26309;50.924;4.754;2023-08-21T01:01:35;19.90;99.90
40600;DHT22;26309;50.924;4.754;2023-08-21T01:04:03;20.10;99.90
40600;DHT22;26309;50.924;4.754;2023-08-21T01:06:29;20.00;99.90
40600;DHT22;26309;50.924;4.754;2023-08-21T01:14:27;20.10;99.90
40600;DHT22;26309;50.924;4.754;2023-08-21T01:16:58;20.20;99.90
40600;DHT22;26309;50.924;4.754;2023-08-21T01:19:32;20.10;99.90
40600;DHT22;26309;50.924;4.754;2023-08-21T01:22:01;19.90;99.90
40600;DHT22;26309;50.924;4.754;2023-08-21T01:24:27;19.80;99.90
40600;DHT22;26309;50.924;4.754;2023-08-21T01:26:53;19.80;99.90
40600;DHT22;26309;50.924;4.754;2023-08-21T01:29:19;19.90;99.90
40600;DHT22;26309;50.924;4.754;2023-08-21T01:32:03;19.90;99.90
40600;DHT22;26309;50.924;4.754;2023-08-21T01:34:32;19.60;99.90
40600;DHT22;26309;50.924;4.754;2023-08-21T01:37:00;19.70;99.90
40600;DHT22;26309;50.924;4.754;2023-08-21T01:39:27;19.60;99.90
40600;DHT22;26309;50.924;4.754;2023-08-21T01:41:53;19.60;99.90
40600;DHT22;26309;50.924;4.754;2023-08-21T01:44:19;19.50;99.90
40600;DHT22;26309;50.924;4.754;2023-08-21T01:46:45;19.50;99.90
40600;DHT22;26309;50.924;4.754;2023-08-21T01:49:11;19.50;99.90
40600;DHT22;26309;50.924;4.754;2023-08-21T01:51:37;19.50;99.90
40600;DHT22;26309;50.924;4.754;2023-08-21T01:54:04;19.40;99.90
40600;DHT22;26309;50.924;4.754;2023-08-21T01:56:33;19.40;99.90
40600;DHT22;26309;50.924;4.754;2023-08-21T01:59:01;19.40;99.90
40600;DHT22;26309;50.924;4.754;2023-08-21T02:01:27;19.10;99.90
40600;DHT22;26309;50.924;4.754;2023-08-21T02:03:54;19.00;99.90
40600;DHT22;26309;50.924;4.754;2023-08-21T02:06:20;19.00;99.90
40600;DHT22;26309;50.924;4.754;2023-08-21T02:08:46;19.10;99.90
40600;DHT22;26309;50.924;4.754;2023-08-21T02:11:13;19.10;99.90
40600;DHT22;26309;50.924;4.754;2023-08-21T02:13:39;19.00;99.90
40600;DHT22;26309;50.924;4.754;2023-08-21T02:16:05;19.10;99.90
40600;DHT22;26309;50.924;4.754;2023-08-21T02:18:30;19.10;99.90
40600;DHT22;26309;50.924;4.754;2023-08-21T02:20:57;19.00;99.90
40600;DHT22;26309;50.924;4.754;2023-08-21T02:23:23;19.00;99.90
40600;DHT22;26309;50.924;4.754;2023-08-21T02:25:50;19.00;99.90
40600;DHT22;26309;50.924;4.754;2023-08-21T02:28:16;19.00;99.90
40600;DHT22;26309;50.924;4.754;2023-08-21T02:30:43;19.00;99.90
40600;DHT22;26309;50.924;4.754;2023-08-21T02:33:09;18.90;99.90
40600;DHT22;26309;50.924;4.754;2023-08-21T02:35:35;19.00;99.90
40600;DHT22;26309;50.924;4.754;2023-08-21T02:38:02;18.90;99.90
40600;DHT22;26309;50.924;4.754;2023-08-21T02:40:27;18.90;99.90
40600;DHT22;26309;50.924;4.754;2023-08-21T02:42:53;18.80;99.90
40600;DHT22;26309;50.924;4.754;2023-08-21T02:45:22;18.70;99.90
40600;DHT22;26309;50.924;4.754;2023-08-21T02:47:48;18.80;99.90
40600;DHT22;26309;50.924;4.754;2023-08-21T02:50:14;18.70;99.90
40600;DHT22;26309;50.924;4.754;2023-08-21T02:52:40;18.70;99.90
40600;DHT22;26309;50.924;4.754;2023-08-21T02:55:06;18.60;99.90
40600;DHT22;26309;50.924;4.754;2023-08-21T02:57:32;18.60;99.90
40600;DHT22;26309;50.924;4.754;2023-08-21T02:59:58;18.70;99.90
40600;DHT22;26309;50.924;4.754;2023-08-21T03:02:24;18.80;99.90
40600;DHT22;26309;50.924;4.754;2023-08-21T03:04:50;18.70;99.90
40600;DHT22;26309;50.924;4.754;2023-08-21T03:07:17;18.70;99.90
40600;DHT22;26309;50.924;4.754;2023-08-21T03:09:45;18.50;99.90
40600;DHT22;26309;50.924;4.754;2023-08-21T03:12:15;18.70;99.90
40600;DHT22;26309;50.924;4.754;2023-08-21T03:14:41;18.70;99.90
40600;DHT22;26309;50.924;4.754;2023-08-21T03:17:07;18.60;99.90
40600;DHT22;26309;50.924;4.754;2023-08-21T03:19:33;18.70;99.90
40600;DHT22;26309;50.924;4.754;2023-08-21T03:21:59;18.60;99.90
40600;DHT22;26309;50.924;4.754;2023-08-21T03:24:25;18.60;99.90
40600;DHT22;26309;50.924;4.754;2023-08-21T03:26:51;18.50;99.90
40600;DHT22;26309;50.924;4.754;2023-08-21T03:29:17;18.40;99.90
40600;DHT22;26309;50.924;4.754;2023-08-21T03:31:43;18.50;99.90
40600;DHT22;26309;50.924;4.754;2023-08-21T03:34:09;18.60;99.90
40600;DHT22;26309;50.924;4.754;2023-08-21T03:36:34;18.70;99.90
40600;DHT22;26309;50.924;4.754;2023-08-21T03:39:03;18.60;99.90
40600;DHT22;26309;50.924;4.754;2023-08-21T03:41:33;18.60;99.90
40600;DHT22;26309;50.924;4.754;2023-08-21T03:43:59;18.60;99.90
40600;DHT22;26309;50.924;4.754;2023-08-21T03:46:24;18.50;99.90
40600;DHT22;26309;50.924;4.754;2023-08-21T03:48:51;18.60;99.90
40600;DHT22;26309;50.924;4.754;2023-08-21T03:51:17;18.50;99.90
40600;DHT22;26309;50.924;4.754;2023-08-21T03:53:42;18.50;99.90
40600;DHT22;26309;50.924;4.754;2023-08-21T03:56:08;18.60;99.90
40600;DHT22;26309;50.924;4.754;2023-08-21T03:58:35;18.50;99.90
40600;DHT22;26309;50.924;4.754;2023-08-21T04:01:01;18.30;99.90
40600;DHT22;26309;50.924;4.754;2023-08-21T04:03:26;18.40;99.90
40600;DHT22;26309;50.924;4.754;2023-08-21T04:05:55;18.30;99.90
40600;DHT22;26309;50.924;4.754;2023-08-21T04:08:24;18.30;99.90
40600;DHT22;26309;50.924;4.754;2023-08-21T04:10:51;18.10;99.90
40600;DHT22;26309;50.924;4.754;2023-08-21T04:13:25;18.00;99.90
40600;DHT22;26309;50.924;4.754;2023-08-21T04:15:53;18.10;99.90
40600;DHT22;26309;50.924;4.754;2023-08-21T04:18:22;18.10;99.90
40600;DHT22;26309;50.924;4.754;2023-08-21T04:20:49;18.20;99.90
40600;DHT22;26309;50.924;4.754;2023-08-21T04:23:19;18.20;99.90
40600;DHT22;26309;50.924;4.754;2023-08-21T04:25:45;18.20;99.90
40600;DHT22;26309;50.924;4.754;2023-08-21T04:28:11;18.20;99.90
40600;DHT22;26309;50.924;4.754;2023-08-21T04:30:40;18.20;99.90
40600;DHT22;26309;50.924;4.754;2023-08-21T04:33:07;18.20;99.90
40600;DHT22;26309;50.924;4.754;2023-08-21T04:35:39;18.20;99.90
40600;DHT22;26309;50.924;4.754;2023-08-21T04:38:06;18.10;99.90
40600;DHT22;26309;50.924;4.754;2023-08-21T04:40:34;18.00;99.90
40600;DHT22;26309;50.924;4.754;2023-08-21T04:43:00;18.00;99.90
40600;DHT22;26309;50.924;4.754;2023-08-21T04:45:25;18.00;99.90
40600;DHT22;26309;50.924;4.754;2023-08-21T04:47:51;18.10;99.90
40600;DHT22;26309;50.924;4.754;2023-08-21T04:50:17;18.10;99.90
40600;DHT22;26309;50.924;4.754;2023-08-21T04:52:43;18.10;99.90
40600;DHT22;26309;50.924;4.754;2023-08-21T04:55:09;18.10;99.90
40600;DHT22;26309;50.924;4.754;2023-08-21T04:57:35;18.10;99.90
40600;DHT22;26309;50.924;4.754;2023-08-21T05:00:01;18.10;99.90
40600;DHT22;26309;50.924;4.754;2023-08-21T05:02:27;18.10;99.90
40600;DHT22;26309;50.924;4.754;2023-08-21T05:04:52;18.10;99.90
40600;DHT22;26309;50.924;4.754;2023-08-21T05:07:18;18.20;99.90
40600;DHT22;26309;50.924;4.754;2023-08-21T05:09:44;18.10;99.90
40600;DHT22;26309;50.924;4.754;2023-08-21T05:12:10;18.00;99.90
40600;DHT22;26309;50.924;4.754;2023-08-21T05:14:36;17.90;99.90
40600;DHT22;26309;50.924;4.754;2023-08-21T05:17:03;18.00;99.90
40600;DHT22;26309;50.924;4.754;2023-08-21T05:19:29;17.90;99.90
40600;DHT22;26309;50.924;4.754;2023-08-21T05:21:55;17.90;99.90
40600;DHT22;26309;50.924;4.754;2023-08-21T05:24:21;17.90;99.90
40600;DHT22;26309;50.924;4.754;2023-08-21T05:26:47;18.00;99.90
40600;DHT22;26309;50.924;4.754;2023-08-21T05:29:13;18.10;99.90
40600;DHT22;26309;50.924;4.754;2023-08-21T05:31:39;18.30;99.90
40600;DHT22;26309;50.924;4.754;2023-08-21T05:34:06;18.40;99.90
40600;DHT22;26309;50.924;4.754;2023-08-21T05:36:32;18.40;99.90
40600;DHT22;26309;50.924;4.754;2023-08-21T05:38:58;18.50;99.90
40600;DHT22;26309;50.924;4.754;2023-08-21T05:41:24;18.60;99.90
40600;DHT22;26309;50.924;4.754;2023-08-21T05:43:50;18.50;99.90
40600;DHT22;26309;50.924;4.754;2023-08-21T05:46:16;18.70;99.90
40600;DHT22;26309;50.924;4.754;2023-08-21T05:48:44;18.90;99.90
40600;DHT22;26309;50.924;4.754;2023-08-21T05:51:10;19.00;99.90
40600;DHT22;26309;50.924;4.754;2023-08-21T05:53:36;19.00;99.90
40600;DHT22;26309;50.924;4.754;2023-08-21T05:56:02;19.10;99.90
40600;DHT22;26309;50.924;4.754;2023-08-21T05:58:29;19.40;99.90
40600;DHT22;26309;50.924;4.754;2023-08-21T06:00:57;19.90;99.90
40600;DHT22;26309;50.924;4.754;2023-08-21T06:03:23;20.60;99.90
40600;DHT22;26309;50.924;4.754;2023-08-21T06:05:49;21.10;99.90
40600;DHT22;26309;50.924;4.754;2023-08-21T06:08:15;21.50;99.90
40600;DHT22;26309;50.924;4.754;2023-08-21T06:10:41;21.90;99.90
40600;DHT22;26309;50.924;4.754;2023-08-21T06:13:07;22.20;99.90
40600;DHT22;26309;50.924;4.754;2023-08-21T06:15:33;22.50;99.90
40600;DHT22;26309;50.924;4.754;2023-08-21T06:17:59;22.50;99.90
40600;DHT22;26309;50.924;4.754;2023-08-21T06:20:25;22.70;99.90
40600;DHT22;26309;50.924;4.754;2023-08-21T06:22:51;22.90;99.90
40600;DHT22;26309;50.924;4.754;2023-08-21T06:25:17;23.00;99.90
40600;DHT22;26309;50.924;4.754;2023-08-21T06:27:45;23.20;99.90
40600;DHT22;26309;50.924;4.754;2023-08-21T06:30:11;23.40;99.90
40600;DHT22;26309;50.924;4.754;2023-08-21T06:32:37;23.50;99.90
40600;DHT22;26309;50.924;4.754;2023-08-21T06:35:03;23.60;99.90
40600;DHT22;26309;50.924;4.754;2023-08-21T06:37:29;23.60;99.90
40600;DHT22;26309;50.924;4.754;2023-08-21T06:39:55;23.80;99.90
40600;DHT22;26309;50.924;4.754;2023-08-21T06:42:21;23.90;99.90
40600;DHT22;26309;50.924;4.754;2023-08-21T06:44:47;23.80;99.90
40600;DHT22;26309;50.924;4.754;2023-08-21T06:47:13;23.90;99.90
40600;DHT22;26309;50.924;4.754;2023-08-21T06:49:39;24.00;99.90
40600;DHT22;26309;50.924;4.754;2023-08-21T06:52:05;24.00;99.90
40600;DHT22;26309;50.924;4.754;2023-08-21T06:54:31;24.00;99.90
40600;DHT22;26309;50.924;4.754;2023-08-21T06:56:58;24.00;99.90
40600;DHT22;26309;50.924;4.754;2023-08-21T06:59:24;24.10;99.90
40600;DHT22;26309;50.924;4.754;2023-08-21T07:01:51;24.10;99.90
40600;DHT22;26309;50.924;4.754;2023-08-21T07:04:17;23.90;99.90
40600;DHT22;26309;50.924;4.754;2023-08-21T07:06:43;23.80;99.90
40600;DHT22;26309;50.924;4.754;2023-08-21T07:09:09;23.70;99.90
40600;DHT22;26309;50.924;4.754;2023-08-21T07:11:35;23.70;99.90
40600;DHT22;26309;50.924;4.754;2023-08-21T07:14:01;23.60;99.90
40600;DHT22;26309;50.924;4.754;2023-08-21T07:16:27;23.60;99.90
40600;DHT22;26309;50.924;4.754;2023-08-21T07:18:54;23.50;99.90
40600;DHT22;26309;50.924;4.754;2023-08-21T07:21:20;23.40;99.90
40600;DHT22;26309;50.924;4.754;2023-08-21T07:23:46;23.00;99.90
40600;DHT22;26309;50.924;4.754;2023-08-21T07:26:12;22.90;99.90
40600;DHT22;26309;50.924;4.754;2023-08-21T07:28:38;22.90;99.90
40600;DHT22;26309;50.924;4.754;2023-08-21T07:31:04;23.00;99.90
40600;DHT22;26309;50.924;4.754;2023-08-21T07:33:30;23.00;99.90
40600;DHT22;26309;50.924;4.754;2023-08-21T07:36:05;23.20;99.90
40600;DHT22;26309;50.924;4.754;2023-08-21T07:38:32;23.40;99.90
40600;DHT22;26309;50.924;4.754;2023-08-21T07:41:06;23.40;99.90
40600;DHT22;26309;50.924;4.754;2023-08-21T07:43:33;23.40;99.90
40600;DHT22;26309;50.924;4.754;2023-08-21T07:46:04;23.60;99.90
40600;DHT22;26309;50.924;4.754;2023-08-21T07:48:30;23.60;99.90
40600;DHT22;26309;50.924;4.754;2023-08-21T07:50:56;23.70;99.90
40600;DHT22;26309;50.924;4.754;2023-08-21T07:53:23;23.80;99.90
40600;DHT22;26309;50.924;4.754;2023-08-21T07:55:49;23.80;99.90
40600;DHT22;26309;50.924;4.754;2023-08-21T07:58:15;23.80;99.90
40600;DHT22;26309;50.924;4.754;2023-08-21T08:00:41;24.00;99.90
40600;DHT22;26309;50.924;4.754;2023-08-21T08:03:10;24.10;99.90
40600;DHT22;26309;50.924;4.754;2023-08-21T08:05:37;24.00;99.90
40600;DHT22;26309;50.924;4.754;2023-08-21T08:08:04;23.90;99.90
40600;DHT22;26309;50.924;4.754;2023-08-21T08:10:30;23.70;99.90
40600;DHT22;26309;50.924;4.754;2023-08-21T08:12:56;23.70;99.90
40600;DHT22;26309;50.924;4.754;2023-08-21T08:15:23;24.00;99.90
40600;DHT22;26309;50.924;4.754;2023-08-21T08:17:49;24.20;99.90
40600;DHT22;26309;50.924;4.754;2023-08-21T08:20:19;24.30;99.90
40600;DHT22;26309;50.924;4.754;2023-08-21T08:22:45;24.40;99.90
40600;DHT22;26309;50.924;4.754;2023-08-21T08:25:11;24.40;99.90
40600;DHT22;26309;50.924;4.754;2023-08-21T08:30:13;24.70;99.90
40600;DHT22;26309;50.924;4.754;2023-08-21T08:32:51;24.80;99.90
40600;DHT22;26309;50.924;4.754;2023-08-21T08:35:17;24.70;99.90
40600;DHT22;26309;50.924;4.754;2023-08-21T08:37:43;24.50;99.90
40600;DHT22;26309;50.924;4.754;2023-08-21T08:40:11;24.50;99.90
40600;DHT22;26309;50.924;4.754;2023-08-21T08:42:37;24.60;99.90
40600;DHT22;26309;50.924;4.754;2023-08-21T08:45:04;24.80;99.90
40600;DHT22;26309;50.924;4.754;2023-08-21T08:47:34;25.10;99.90
40600;DHT22;26309;50.924;4.754;2023-08-21T08:50:07;25.30;99.90
40600;DHT22;26309;50.924;4.754;2023-08-21T08:52:39;25.60;99.90
40600;DHT22;26309;50.924;4.754;2023-08-21T08:55:05;25.70;99.90
40600;DHT22;26309;50.924;4.754;2023-08-21T08:57:34;25.90;99.90
40600;DHT22;26309;50.924;4.754;2023-08-21T09:00:01;26.00;99.90
40600;DHT22;26309;50.924;4.754;2023-08-21T09:02:28;26.00;99.90
40600;DHT22;26309;50.924;4.754;2023-08-21T09:04:54;26.00;99.90
40600;DHT22;26309;50.924;4.754;2023-08-21T09:07:20;26.10;99.90
40600;DHT22;26309;50.924;4.754;2023-08-21T09:09:48;26.10;99.90
40600;DHT22;26309;50.924;4.754;2023-08-21T09:12:15;26.20;99.90
40600;DHT22;26309;50.924;4.754;2023-08-21T09:14:43;26.10;99.90
40600;DHT22;26309;50.924;4.754;2023-08-21T09:17:11;26.20;99.90
40600;DHT22;26309;50.924;4.754;2023-08-21T09:19:38;26.30;99.90
40600;DHT22;26309;50.924;4.754;2023-08-21T09:22:15;26.40;99.90
40600;DHT22;26309;50.924;4.754;2023-08-21T09:25:05;26.20;99.90
40600;DHT22;26309;50.924;4.754;2023-08-21T09:27:38;26.20;99.90
40600;DHT22;26309;50.924;4.754;2023-08-21T09:30:10;26.30;99.90
40600;DHT22;26309;50.924;4.754;2023-08-21T09:32:58;26.50;99.90
40600;DHT22;26309;50.924;4.754;2023-08-21T09:35:26;26.80;99.90
40600;DHT22;26309;50.924;4.754;2023-08-21T09:37:52;26.80;99.90
40600;DHT22;26309;50.924;4.754;2023-08-21T09:40:20;26.80;99.70
40600;DHT22;26309;50.924;4.754;2023-08-21T09:42:52;26.80;99.40
40600;DHT22;26309;50.924;4.754;2023-08-21T09:45:21;26.90;99.90
40600;DHT22;26309;50.924;4.754;2023-08-21T09:47:47;26.80;99.90
40600;DHT22;26309;50.924;4.754;2023-08-21T09:50:15;26.80;99.70
40600;DHT22;26309;50.924;4.754;2023-08-21T09:52:42;26.80;99.60
40600;DHT22;26309;50.924;4.754;2023-08-21T09:55:15;26.80;98.70
40600;DHT22;26309;50.924;4.754;2023-08-21T09:57:41;26.80;98.50
40600;DHT22;26309;50.924;4.754;2023-08-21T10:00:08;26.90;98.40
40600;DHT22;26309;50.924;4.754;2023-08-21T10:02:49;27.00;96.60
40600;DHT22;26309;50.924;4.754;2023-08-21T10:05:19;27.00;96.50
40600;DHT22;26309;50.924;4.754;2023-08-21T10:07:49;27.00;97.00
40600;DHT22;26309;50.924;4.754;2023-08-21T10:10:17;27.20;96.40
40600;DHT22;26309;50.924;4.754;2023-08-21T10:12:43;27.20;97.30
40600;DHT22;26309;50.924;4.754;2023-08-21T10:15:12;27.00;97.10
40600;DHT22;26309;50.924;4.754;2023-08-21T10:17:39;26.80;97.30
40600;DHT22;26309;50.924;4.754;2023-08-21T10:20:07;26.70;97.00
40600;DHT22;26309;50.924;4.754;2023-08-21T10:22:45;26.60;97.20
40600;DHT22;26309;50.924;4.754;2023-08-21T10:25:23;26.70;98.30
40600;DHT22;26309;50.924;4.754;2023-08-21T10:27:55;27.00;97.00
40600;DHT22;26309;50.924;4.754;2023-08-21T10:30:28;27.10;99.10
40600;DHT22;26309;50.924;4.754;2023-08-21T10:32:57;27.20;97.00
40600;DHT22;26309;50.924;4.754;2023-08-21T10:35:24;27.20;97.60
40600;DHT22;26309;50.924;4.754;2023-08-21T10:38:10;27.10;97.00
40600;DHT22;26309;50.924;4.754;2023-08-21T10:41:08;26.80;96.20
40600;DHT22;26309;50.924;4.754;2023-08-21T10:43:45;26.80;95.50
40600;DHT22;26309;50.924;4.754;2023-08-21T10:46:11;27.00;96.60
40600;DHT22;26309;50.924;4.754;2023-08-21T12:19:32;28.70;91.20
40600;DHT22;26309;50.924;4.754;2023-08-21T12:22:02;28.70;93.20
40600;DHT22;26309;50.924;4.754;2023-08-21T12:24:29;28.70;91.30
40600;DHT22;26309;50.924;4.754;2023-08-21T12:27:03;28.60;92.80
40600;DHT22;26309;50.924;4.754;2023-08-21T12:29:34;28.50;91.80
40600;DHT22;26309;50.924;4.754;2023-08-21T12:32:06;28.60;91.90
40600;DHT22;26309;50.924;4.754;2023-08-21T12:34:37;28.50;91.00
40600;DHT22;26309;50.924;4.754;2023-08-21T12:37:06;28.50;91.90
40600;DHT22;26309;50.924;4.754;2023-08-21T12:39:32;28.40;91.20
40600;DHT22;26309;50.924;4.754;2023-08-21T12:41:58;28.30;92.10
40600;DHT22;26309;50.924;4.754;2023-08-21T12:44:24;28.40;90.80
40600;DHT22;26309;50.924;4.754;2023-08-21T12:46:50;28.40;91.00
40600;DHT22;26309;50.924;4.754;2023-08-21T12:49:16;28.40;90.90
40600;DHT22;26309;50.924;4.754;2023-08-21T12:51:42;28.60;91.20
40600;DHT22;26309;50.924;4.754;2023-08-21T12:54:08;28.60;91.70
40600;DHT22;26309;50.924;4.754;2023-08-21T12:56:34;28.10;91.90
40600;DHT22;26309;50.924;4.754;2023-08-21T12:59:01;28.00;92.80
40600;DHT22;26309;50.924;4.754;2023-08-21T13:01:26;27.90;90.40
40600;DHT22;26309;50.924;4.754;2023-08-21T13:03:52;27.90;90.90
40600;DHT22;26309;50.924;4.754;2023-08-21T13:06:18;27.80;91.10
40600;DHT22;26309;50.924;4.754;2023-08-21T13:08:44;27.80;91.50
40600;DHT22;26309;50.924;4.754;2023-08-21T13:11:10;27.60;91.80
40600;DHT22;26309;50.924;4.754;2023-08-21T13:13:36;27.70;91.90
40600;DHT22;26309;50.924;4.754;2023-08-21T13:16:03;27.80;92.80
40600;DHT22;26309;50.924;4.754;2023-08-21T13:18:29;27.70;93.00
40600;DHT22;26309;50.924;4.754;2023-08-21T13:20:55;27.70;91.70
40600;DHT22;26309;50.924;4.754;2023-08-21T13:23:21;27.90;92.00
40600;DHT22;26309;50.924;4.754;2023-08-21T13:25:48;28.00;91.20
40600;DHT22;26309;50.924;4.754;2023-08-21T13:28:14;28.20;87.60
40600;DHT22;26309;50.924;4.754;2023-08-21T13:30:40;28.20;90.00
40600;DHT22;26309;50.924;4.754;2023-08-21T13:33:07;28.20;91.10
40600;DHT22;26309;50.924;4.754;2023-08-21T13:35:33;28.20;91.00
40600;DHT22;26309;50.924;4.754;2023-08-21T13:37:59;28.40;86.00
40600;DHT22;26309;50.924;4.754;2023-08-21T13:40:25;28.60;90.60
40600;DHT22;26309;50.924;4.754;2023-08-21T13:42:52;28.60;90.80
40600;DHT22;26309;50.924;4.754;2023-08-21T13:45:19;28.80;91.50
40600;DHT22;26309;50.924;4.754;2023-08-21T13:47:49;29.00;89.30
40600;DHT22;26309;50.924;4.754;2023-08-21T13:50:17;29.20;86.90
40600;DHT22;26309;50.924;4.754;2023-08-21T13:52:45;29.30;87.40
40600;DHT22;26309;50.924;4.754;2023-08-21T13:55:12;29.40;85.40
40600;DHT22;26309;50.924;4.754;2023-08-21T13:57:38;29.40;83.00
40600;DHT22;26309;50.924;4.754;2023-08-21T14:00:07;29.20;84.80
40600;DHT22;26309;50.924;4.754;2023-08-21T14:02:36;28.90;86.40
40600;DHT22;26309;50.924;4.754;2023-08-21T14:05:03;28.70;89.30
40600;DHT22;26309;50.924;4.754;2023-08-21T14:07:33;28.90;88.00
40600;DHT22;26309;50.924;4.754;2023-08-21T14:10:00;29.20;85.60
40600;DHT22;26309;50.924;4.754;2023-08-21T14:12:30;29.60;84.50
40600;DHT22;26309;50.924;4.754;2023-08-21T14:14:57;30.30;85.60
40600;DHT22;26309;50.924;4.754;2023-08-21T14:17:23;30.90;82.90
40600;DHT22;26309;50.924;4.754;2023-08-21T14:19:49;30.90;82.90
40600;DHT22;26309;50.924;4.754;2023-08-21T14:22:16;31.00;77.80
40600;DHT22;26309;50.924;4.754;2023-08-21T14:24:41;31.20;78.50
40600;DHT22;26309;50.924;4.754;2023-08-21T14:27:07;31.90;77.80
40600;DHT22;26309;50.924;4.754;2023-08-21T14:29:33;32.30;78.00
40600;DHT22;26309;50.924;4.754;2023-08-21T14:31:59;32.70;78.60
40600;DHT22;26309;50.924;4.754;2023-08-21T14:34:26;32.90;75.00
40600;DHT22;26309;50.924;4.754;2023-08-21T14:36:55;32.00;75.80
40600;DHT22;26309;50.924;4.754;2023-08-21T14:39:23;32.10;74.80
40600;DHT22;26309;50.924;4.754;2023-08-21T14:42:01;31.90;75.20
40600;DHT22;26309;50.924;4.754;2023-08-21T14:44:27;31.60;77.10
40600;DHT22;26309;50.924;4.754;2023-08-21T14:46:54;32.10;77.50
40600;DHT22;26309;50.924;4.754;2023-08-21T14:49:22;32.70;70.10
40600;DHT22;26309;50.924;4.754;2023-08-21T14:51:48;33.20;68.50
40600;DHT22;26309;50.924;4.754;2023-08-21T14:54:14;33.00;71.20
40600;DHT22;26309;50.924;4.754;2023-08-21T14:56:41;33.00;70.70
40600;DHT22;26309;50.924;4.754;2023-08-21T14:59:07;32.90;72.00
40600;DHT22;26309;50.924;4.754;2023-08-21T15:01:40;33.10;68.10
40600;DHT22;26309;50.924;4.754;2023-08-21T15:04:07;33.60;68.60
40600;DHT22;26309;50.924;4.754;2023-08-21T15:06:34;33.60;69.50
40600;DHT22;26309;50.924;4.754;2023-08-21T15:09:00;33.60;69.10
40600;DHT22;26309;50.924;4.754;2023-08-21T15:11:26;33.90;68.20
40600;DHT22;26309;50.924;4.754;2023-08-21T15:13:52;34.50;64.70
40600;DHT22;26309;50.924;4.754;2023-08-21T15:16:18;35.00;62.40
40600;DHT22;26309;50.924;4.754;2023-08-21T15:18:44;35.80;61.50
40600;DHT22;26309;50.924;4.754;2023-08-21T15:21:13;35.50;59.90
40600;DHT22;26309;50.924;4.754;2023-08-21T15:23:38;35.60;59.40
40600;DHT22;26309;50.924;4.754;2023-08-21T15:26:04;35.70;60.50
40600;DHT22;26309;50.924;4.754;2023-08-21T15:28:30;36.00;58.70
40600;DHT22;26309;50.924;4.754;2023-08-21T15:31:14;35.90;56.30
40600;DHT22;26309;50.924;4.754;2023-08-21T15:33:42;36.50;57.90
40600;DHT22;26309;50.924;4.754;2023-08-21T15:36:14;37.10;56.20
40600;DHT22;26309;50.924;4.754;2023-08-21T15:38:49;37.20;56.10
40600;DHT22;26309;50.924;4.754;2023-08-21T15:41:16;37.20;55.00
40600;DHT22;26309;50.924;4.754;2023-08-21T15:43:42;37.50;53.50
40600;DHT22;26309;50.924;4.754;2023-08-21T15:46:08;37.40;53.90
40600;DHT22;26309;50.924;4.754;2023-08-21T15:48:34;37.50;54.00
40600;DHT22;26309;50.924;4.754;2023-08-21T15:51:00;37.40;52.20
40600;DHT22;26309;50.924;4.754;2023-08-21T15:53:27;37.70;51.80
40600;DHT22;26309;50.924;4.754;2023-08-21T15:55:56;37.50;51.50
40600;DHT22;26309;50.924;4.754;2023-08-21T15:58:23;37.50;53.40
40600;DHT22;26309;50.924;4.754;2023-08-21T16:00:48;37.70;50.90
40600;DHT22;26309;50.924;4.754;2023-08-21T16:03:14;38.30;49.90
40600;DHT22;26309;50.924;4.754;2023-08-21T16:05:40;38.50;50.70
40600;DHT22;26309;50.924;4.754;2023-08-21T16:08:06;39.00;48.70
40600;DHT22;26309;50.924;4.754;2023-08-21T16:10:35;39.40;46.60
40600;DHT22;26309;50.924;4.754;2023-08-21T16:13:02;39.90;46.30
40600;DHT22;26309;50.924;4.754;2023-08-21T16:15:29;40.00;47.10
40600;DHT22;26309;50.924;4.754;2023-08-21T16:17:54;39.80;47.50
40600;DHT22;26309;50.924;4.754;2023-08-21T16:20:20;40.10;47.60
40600;DHT22;26309;50.924;4.754;2023-08-21T16:22:46;40.30;46.10
40600;DHT22;26309;50.924;4.754;2023-08-21T16:25:14;40.30;45.10
40600;DHT22;26309;50.924;4.754;2023-08-21T16:27:40;40.30;44.90
40600;DHT22;26309;50.924;4.754;2023-08-21T16:30:07;40.10;45.30
40600;DHT22;26309;50.924;4.754;2023-08-21T16:32:34;40.20;44.00
40600;DHT22;26309;50.924;4.754;2023-08-21T16:35:00;40.50;44.10
40600;DHT22;26309;50.924;4.754;2023-08-21T16:37:26;41.00;42.90
40600;DHT22;26309;50.924;4.754;2023-08-21T16:39:52;41.40;43.30
40600;DHT22;26309;50.924;4.754;2023-08-21T16:42:18;42.00;42.80
40600;DHT22;26309;50.924;4.754;2023-08-21T16:44:44;42.20;42.90
40600;DHT22;26309;50.924;4.754;2023-08-21T16:47:10;42.40;43.50
40600;DHT22;26309;50.924;4.754;2023-08-21T16:49:36;42.70;43.20
40600;DHT22;26309;50.924;4.754;2023-08-21T16:52:02;42.10;42.40
40600;DHT22;26309;50.924;4.754;2023-08-21T16:54:28;41.70;43.00
40600;DHT22;26309;50.924;4.754;2023-08-21T16:56:54;41.70;41.80
40600;DHT22;26309;50.924;4.754;2023-08-21T16:59:20;41.60;43.10
40600;DHT22;26309;50.924;4.754;2023-08-21T17:01:46;41.60;45.60
40600;DHT22;26309;50.924;4.754;2023-08-21T17:04:15;41.70;45.40
40600;DHT22;26309;50.924;4.754;2023-08-21T17:06:41;41.90;43.90
40600;DHT22;26309;50.924;4.754;2023-08-21T17:09:07;42.00;43.70